Brevik Bridge — VRHY7 — position and weather

sailwx.info

Track history (hours):
 
Tides and Currents Weather Stations Pressure Air Temp Water Temp Dewpoint Dewpoint Depression Visibility Wind Speed Wind Dir Waves Ship Positions

Brevik Bridge

Last reported at 2016-Apr-27 13:07 UTC. Time now 2016-Apr-28 23:57 UTC.
Position S 19°52' E 056°40'.

Length 268 m; draft 11.7 m.

Type: Ship (hazmat cat D). MMSI: 477866200.

Date/timePositionNaut miles runAvg speedWind from/ knotsBaromVisibWave heightAir tempDewpointWater temp
2016-Apr-27 13:07S 19°52' E 056°40'814.7
2016-Apr-27 12:32S 19°48' E 056°48'1615.3
2016-Apr-27 11:29S 19°40' E 057°03'1515.7
2016-Apr-27 10:33S 19°33' E 057°17'1615.6
2016-Apr-27 09:33S 19°26' E 057°32'  
2016-Apr-18 19:25N 01°55' E 102°21'1416.3
2016-Apr-18 18:33N 01°48' E 102°33'1716.5
2016-Apr-18 17:32N 01°41' E 102°48'5914.7
2016-Apr-18 13:33N 01°12' E 103°39'8 8.0
2016-Apr-18 12:33N 01°17' E 103°46'0 0.0
2016-Apr-18 11:28N 01°17' E 103°46'0 0.0
2016-Apr-18 10:28N 01°17' E 103°46'0 0.0
2016-Apr-18 09:25N 01°17' E 103°46'0 0.0
2016-Apr-18 08:31N 01°17' E 103°46'0 0.0
2016-Apr-18 07:31N 01°17' E 103°46'0 0.0
2016-Apr-18 06:31N 01°17' E 103°46'0 0.0
2016-Apr-18 04:28N 01°17' E 103°46'0 0.0
2016-Apr-18 03:28N 01°17' E 103°46'0 0.0
2016-Apr-18 02:28N 01°17' E 103°46'0 0.0
2016-Apr-18 01:28N 01°17' E 103°46'0 0.0
2016-Apr-18 00:31N 01°17' E 103°46'0 0.0
2016-Apr-17 23:31N 01°17' E 103°46'0 0.0
2016-Apr-17 22:28N 01°17' E 103°46'0 0.0
2016-Apr-17 21:16N 01°17' E 103°46'0 0.0
2016-Apr-17 20:31N 01°17' E 103°46'0 0.0
2016-Apr-17 19:28N 01°17' E 103°46'0 0.1
2016-Apr-17 18:33N 01°17' E 103°46'1 1.3
2016-Apr-17 17:33N 01°15' E 103°46'7 7.5
2016-Apr-17 16:33N 01°14' E 103°53'0 0.4
2016-Apr-17 15:33N 01°14' E 103°54'9 9.1
2016-Apr-17 14:33N 01°16' E 104°03'1411.7
2016-Apr-17 13:19N 01°19' E 104°17'  
Track history (hours):
 
Tides and Currents Weather Stations Pressure Air Temp Water Temp Dewpoint Dewpoint Depression Visibility Wind Speed Wind Dir Waves Ship Positions

Brevik Bridge

Last reported at 2016-Apr-27 13:07 UTC. Time now 2016-Apr-28 23:57 UTC.
Position S 19°52' E 056°40'.

Length 268 m; draft 11.7 m.

Type: Ship (hazmat cat D). MMSI: 477866200.

Date/timePositionNaut miles runAvg speedWind from/ knotsBaromVisibWave heightAir tempDewpointWater temp
2016-Apr-27 13:07S 19°52' E 056°40'814.7
2016-Apr-27 12:32S 19°48' E 056°48'1615.3
2016-Apr-27 11:29S 19°40' E 057°03'1515.7
2016-Apr-27 10:33S 19°33' E 057°17'1615.6
2016-Apr-27 09:33S 19°26' E 057°32'  
2016-Apr-18 19:25N 01°55' E 102°21'1416.3
2016-Apr-18 18:33N 01°48' E 102°33'1716.5
2016-Apr-18 17:32N 01°41' E 102°48'5914.7
2016-Apr-18 13:33N 01°12' E 103°39'8 8.0
2016-Apr-18 12:33N 01°17' E 103°46'0 0.0
2016-Apr-18 11:28N 01°17' E 103°46'0 0.0
2016-Apr-18 10:28N 01°17' E 103°46'0 0.0
2016-Apr-18 09:25N 01°17' E 103°46'0 0.0
2016-Apr-18 08:31N 01°17' E 103°46'0 0.0
2016-Apr-18 07:31N 01°17' E 103°46'0 0.0
2016-Apr-18 06:31N 01°17' E 103°46'0 0.0
2016-Apr-18 04:28N 01°17' E 103°46'0 0.0
2016-Apr-18 03:28N 01°17' E 103°46'0 0.0
2016-Apr-18 02:28N 01°17' E 103°46'0 0.0
2016-Apr-18 01:28N 01°17' E 103°46'0 0.0
2016-Apr-18 00:31N 01°17' E 103°46'0 0.0
2016-Apr-17 23:31N 01°17' E 103°46'0 0.0
2016-Apr-17 22:28N 01°17' E 103°46'0 0.0
2016-Apr-17 21:16N 01°17' E 103°46'0 0.0
2016-Apr-17 20:31N 01°17' E 103°46'0 0.0
2016-Apr-17 19:28N 01°17' E 103°46'0 0.1
2016-Apr-17 18:33N 01°17' E 103°46'1 1.3
2016-Apr-17 17:33N 01°15' E 103°46'7 7.5
2016-Apr-17 16:33N 01°14' E 103°53'0 0.4
2016-Apr-17 15:33N 01°14' E 103°54'9 9.1
2016-Apr-17 14:33N 01°16' E 104°03'1411.7
2016-Apr-17 13:19N 01°19' E 104°17'  

Dump ship's entire track history